Time;durP1;ratioP1;P1;durP2;ratioP2;P2;SDS_P1;SDS_P2;PMS_P1;PMS_P2;Temp;Humidity;BMP_temperature;BMP_pressure;BME280_temperature;BME280_humidity;BME280_pressure;Samples;Min_cycle;Max_cycle;Signal;HPM_P1;HPM_P2
2022/04/02 00:00:52;;;;;;;3.15;1.90;;;3.20;99.90;;;;;;5072201;28;20476;-75
2022/04/02 00:03:19;;;;;;;5.18;1.67;;;3.20;99.90;;;;;;5071200;28;20058;-75
2022/04/02 00:05:45;;;;;;;2.72;1.50;;;3.20;99.90;;;;;;5071919;28;20103;-76
2022/04/02 00:08:11;;;;;;;4.18;1.73;;;3.20;99.90;;;;;;5071524;28;20127;-75
2022/04/02 00:10:36;;;;;;;2.38;1.27;;;3.10;99.90;;;;;;5071649;28;20059;-76
2022/04/02 00:13:02;;;;;;;2.25;1.90;;;3.10;99.90;;;;;;5072220;28;20031;-76
2022/04/02 00:15:27;;;;;;;3.20;1.70;;;3.00;99.90;;;;;;5072328;28;20451;-76
2022/04/02 00:17:53;;;;;;;4.60;2.13;;;3.00;99.90;;;;;;5071419;28;20028;-76
2022/04/02 00:20:18;;;;;;;4.13;1.77;;;3.10;99.90;;;;;;5071682;28;20044;-76
2022/04/02 00:25:28;;;;;;;3.53;1.65;;;3.00;99.90;;;;;;5070931;28;20099;-74
2022/04/02 00:27:54;;;;;;;3.05;1.88;;;3.00;99.90;;;;;;5054092;28;20048;-74
2022/04/02 00:30:19;;;;;;;1.58;1.27;;;2.90;99.90;;;;;;5071668;28;20032;-77
2022/04/02 00:32:45;;;;;;;4.40;1.63;;;2.80;99.90;;;;;;5071509;28;20025;-77
2022/04/02 00:35:10;;;;;;;4.82;1.60;;;2.90;99.90;;;;;;5071406;28;20103;-75
2022/04/02 00:37:36;;;;;;;6.75;1.70;;;2.80;99.90;;;;;;5071778;28;20055;-75
2022/04/02 00:40:02;;;;;;;6.97;1.80;;;2.80;99.90;;;;;;5071354;28;20028;-74
2022/04/02 00:42:27;;;;;;;3.95;1.75;;;2.80;99.90;;;;;;5071489;28;20032;-75
2022/04/02 00:44:53;;;;;;;3.10;1.83;;;2.80;99.90;;;;;;5072376;28;20105;-76
2022/04/02 00:47:20;;;;;;;3.75;1.80;;;2.80;99.90;;;;;;5075518;28;20512;-76
2022/04/02 00:49:46;;;;;;;7.45;2.15;;;2.70;99.90;;;;;;5071620;28;20492;-77
2022/04/02 00:52:13;;;;;;;7.68;1.65;;;2.60;99.90;;;;;;5070752;28;20032;-75
2022/04/02 00:54:39;;;;;;;3.00;2.00;;;2.60;99.90;;;;;;5073188;28;20070;-74
2022/04/02 00:57:05;;;;;;;3.30;2.38;;;2.60;99.90;;;;;;5075564;28;20043;-76
2022/04/02 00:59:30;;;;;;;6.07;2.10;;;2.60;99.90;;;;;;5074680;28;20017;-75
2022/04/02 01:01:56;;;;;;;5.60;1.38;;;2.70;99.90;;;;;;5075345;28;20089;-75
2022/04/02 01:04:22;;;;;;;4.30;1.80;;;2.60;99.90;;;;;;5075065;28;20032;-77
2022/04/02 01:06:50;;;;;;;5.15;2.03;;;2.60;99.90;;;;;;5077282;28;20584;-76
2022/04/02 01:09:15;;;;;;;2.58;1.38;;;2.60;99.90;;;;;;5074973;28;20063;-75
2022/04/02 01:11:42;;;;;;;4.25;1.55;;;2.70;99.90;;;;;;5075262;28;20025;-76
2022/04/02 01:14:10;;;;;;;3.15;1.75;;;2.70;99.90;;;;;;5074177;28;20024;-74
2022/04/02 01:16:36;;;;;;;3.63;2.35;;;2.60;99.90;;;;;;5074998;28;20472;-74
2022/04/02 01:19:03;;;;;;;3.63;1.85;;;2.70;99.90;;;;;;5075071;28;20032;-77
2022/04/02 01:21:29;;;;;;;2.33;1.90;;;2.70;99.90;;;;;;5074463;28;20066;-73
2022/04/02 01:24:00;;;;;;;2.33;1.45;;;2.70;99.90;;;;;;5075205;28;20017;-75
2022/04/02 01:26:25;;;;;;;;;;;2.70;99.90;;;;;;5080971;28;20029;-76
2022/04/02 01:28:54;;;;;;;2.35;1.60;;;2.70;99.90;;;;;;5074097;28;19919;-75
2022/04/02 01:31:21;;;;;;;3.58;1.70;;;2.70;99.90;;;;;;5074522;28;20028;-77
2022/04/02 01:33:49;;;;;;;2.33;1.48;;;2.80;99.90;;;;;;5075185;28;20029;-77
2022/04/02 01:36:15;;;;;;;1.85;1.30;;;2.70;99.90;;;;;;5077016;28;20033;-74
2022/04/02 01:38:41;;;;;;;3.58;1.27;;;2.70;99.90;;;;;;5075121;28;20563;-76
2022/04/02 01:41:07;;;;;;;1.95;1.10;;;2.70;99.90;;;;;;5085375;28;20025;-77
2022/04/02 01:43:33;;;;;;;3.38;1.50;;;2.70;99.90;;;;;;5074501;28;20028;-75
2022/04/02 01:46:00;;;;;;;2.92;1.65;;;2.70;99.90;;;;;;5074479;28;20024;-77
2022/04/02 01:48:26;;;;;;;2.22;1.65;;;2.70;99.90;;;;;;5073471;28;20392;-74
2022/04/02 01:50:52;;;;;;;2.33;1.58;;;2.70;99.90;;;;;;5074647;28;20048;-77
2022/04/02 01:53:19;;;;;;;1.50;1.23;;;2.60;99.90;;;;;;5074357;28;20052;-74
2022/04/02 01:55:45;;;;;;;2.22;1.63;;;2.60;99.90;;;;;;5073597;28;20495;-76
2022/04/02 01:58:11;;;;;;;1.38;1.27;;;2.60;99.90;;;;;;5074068;28;20601;-76
2022/04/02 02:00:37;;;;;;;2.90;1.90;;;2.70;99.90;;;;;;5074218;28;20111;-74
2022/04/02 02:03:03;;;;;;;2.20;1.50;;;2.60;99.90;;;;;;5073477;28;20039;-74
2022/04/02 02:05:28;;;;;;;5.57;1.75;;;2.50;99.90;;;;;;5073388;28;20056;-74
2022/04/02 02:07:54;;;;;;;4.70;2.13;;;2.60;99.90;;;;;;5073971;28;20035;-73
2022/04/02 02:10:20;;;;;;;1.70;1.48;;;2.50;99.90;;;;;;5073316;28;20090;-74
2022/04/02 02:12:46;;;;;;;1.60;1.40;;;2.50;99.90;;;;;;5074165;28;20032;-75
2022/04/02 02:15:18;;;;;;;1.92;1.40;;;2.40;99.90;;;;;;5073570;28;20023;-75
2022/04/02 02:17:48;;;;;;;1.63;1.35;;;2.30;99.90;;;;;;5073384;28;20028;-74
2022/04/02 02:20:15;;;;;;;3.25;1.13;;;2.40;99.90;;;;;;5073851;28;20036;-77
2022/04/02 02:22:41;;;;;;;2.70;1.58;;;2.40;99.90;;;;;;5073979;28;20029;-76
2022/04/02 02:25:09;;;;;;;3.13;2.00;;;2.30;99.90;;;;;;5072898;28;20039;-77
2022/04/02 02:27:35;;;;;;;1.55;1.17;;;2.30;99.90;;;;;;5073608;28;20546;-76
2022/04/02 02:30:03;;;;;;;2.60;1.50;;;2.30;99.90;;;;;;5073844;28;20036;-75
2022/04/02 02:32:31;;;;;;;3.35;1.50;;;2.30;99.90;;;;;;5073010;28;20031;-77
2022/04/02 02:37:41;;;;;;;4.22;1.95;;;2.30;99.90;;;;;;5077140;28;20078;-76
2022/04/02 02:40:09;;;;;;;3.13;1.55;;;2.20;99.90;;;;;;5074616;28;20017;-76
2022/04/02 02:42:34;;;;;;;5.35;2.33;;;2.20;99.90;;;;;;5079101;28;20119;-75
2022/04/02 02:45:00;;;;;;;4.03;1.52;;;2.10;99.90;;;;;;5072808;28;20574;-76
2022/04/02 02:47:25;;;;;;;5.55;1.95;;;2.10;99.90;;;;;;5072966;28;20040;-75
2022/04/02 02:49:51;;;;;;;1.85;1.70;;;2.10;99.90;;;;;;5073273;28;20063;-75
2022/04/02 02:52:16;;;;;;;4.97;1.60;;;2.10;99.90;;;;;;5072227;28;20056;-76
2022/04/02 02:54:43;;;;;;;5.93;1.63;;;2.00;99.90;;;;;;5073150;28;20052;-76
2022/04/02 02:57:08;;;;;;;6.10;1.35;;;1.90;99.90;;;;;;5072981;28;20040;-75
2022/04/02 02:59:35;;;;;;;7.18;2.90;;;1.90;99.90;;;;;;5072635;28;20488;-76
2022/04/02 03:02:01;;;;;;;1.95;1.60;;;1.80;99.90;;;;;;5073105;28;20465;-77
2022/04/02 03:04:26;;;;;;;1.88;1.55;;;1.70;99.90;;;;;;5072584;28;20040;-74
2022/04/02 03:06:52;;;;;;;2.17;1.30;;;1.80;99.90;;;;;;5072229;28;20028;-75
2022/04/02 03:09:17;;;;;;;6.95;1.83;;;1.70;99.90;;;;;;5072338;28;20051;-76
2022/04/02 03:11:43;;;;;;;4.85;1.50;;;1.60;99.90;;;;;;5073037;28;20090;-75
2022/04/02 03:14:09;;;;;;;2.25;1.58;;;1.60;99.90;;;;;;5071832;28;20024;-75
2022/04/02 03:16:35;;;;;;;3.28;1.70;;;1.50;99.90;;;;;;5072207;28;20491;-76
2022/04/02 03:19:02;;;;;;;3.78;1.80;;;1.60;99.90;;;;;;5072892;28;20028;-75
2022/04/02 03:21:28;;;;;;;2.05;1.50;;;1.60;99.90;;;;;;5072136;28;20396;-75
2022/04/02 03:23:57;;;;;;;3.92;1.67;;;1.50;99.90;;;;;;5073313;28;20029;-75
2022/04/02 03:26:25;;;;;;;2.08;1.70;;;1.40;99.90;;;;;;5083321;28;20416;-76
2022/04/02 03:28:51;;;;;;;2.53;1.63;;;1.50;99.90;;;;;;5076372;28;20115;-76
2022/04/02 03:31:16;;;;;;;3.17;1.30;;;1.60;99.90;;;;;;5072358;28;20107;-75
2022/04/02 03:33:42;;;;;;;1.27;1.17;;;1.70;99.90;;;;;;5072751;28;20410;-75
2022/04/02 03:36:10;;;;;;;1.98;1.40;;;1.80;99.90;;;;;;5073461;28;20020;-75
2022/04/02 03:38:36;;;;;;;2.55;1.15;;;1.80;99.90;;;;;;5076725;28;20031;-75
2022/04/02 03:41:04;;;;;;;2.47;1.45;;;1.80;99.90;;;;;;5077812;28;20036;-76
2022/04/02 03:43:30;;;;;;;6.25;1.55;;;1.80;99.90;;;;;;5082926;28;20028;-76
2022/04/02 03:47:08;;;;;;;2.75;1.10;;;1.70;99.90;;;;;;5072425;28;20027;-77
2022/04/02 03:48:41;;;;;;;2.08;1.27;;;1.80;99.90;;;;;;5071413;28;20029;-76
2022/04/02 03:51:07;;;;;;;2.20;1.27;;;1.80;99.90;;;;;;5072048;28;20031;-75
2022/04/02 03:53:32;;;;;;;4.20;1.55;;;1.80;99.90;;;;;;5072459;28;20089;-76
2022/04/02 03:55:58;;;;;;;2.78;1.52;;;1.70;99.90;;;;;;5071730;28;20021;-78
2022/04/02 03:58:24;;;;;;;1.98;1.30;;;1.70;99.90;;;;;;5072054;28;20512;-75
2022/04/02 04:00:50;;;;;;;3.85;2.00;;;1.60;99.90;;;;;;5072153;28;20020;-75
2022/04/02 04:03:16;;;;;;;4.22;1.70;;;1.50;99.90;;;;;;5071467;28;20050;-75
2022/04/02 04:05:43;;;;;;;2.58;1.10;;;1.40;99.90;;;;;;5072218;28;20469;-75
2022/04/02 04:08:09;;;;;;;3.25;1.50;;;1.30;99.90;;;;;;5071662;28;20052;-75
2022/04/02 04:10:34;;;;;;;1.90;1.25;;;1.30;99.90;;;;;;5072894;28;20058;-76
2022/04/02 04:13:00;;;;;;;7.80;1.73;;;1.30;99.90;;;;;;5072670;28;20029;-75
2022/04/02 04:15:26;;;;;;;1.85;1.60;;;1.10;99.90;;;;;;5071804;28;20056;-75
2022/04/02 04:17:52;;;;;;;2.05;1.35;;;1.10;99.90;;;;;;5071441;28;20028;-75
2022/04/02 04:20:18;;;;;;;1.77;1.42;;;1.10;99.90;;;;;;5071922;28;20028;-77
2022/04/02 04:22:44;;;;;;;1.60;1.42;;;1.00;99.90;;;;;;5078336;28;20088;-77
2022/04/02 04:25:10;;;;;;;3.33;1.50;;;1.10;99.90;;;;;;5075723;28;20449;-75
2022/04/02 04:27:36;;;;;;;1.40;1.30;;;1.00;99.90;;;;;;5071859;28;20116;-77
2022/04/02 04:30:03;;;;;;;2.65;1.45;;;1.00;99.90;;;;;;5076114;28;20024;-77
2022/04/02 04:32:28;;;;;;;4.93;1.77;;;1.00;99.90;;;;;;5075292;28;20029;-77
2022/04/02 04:34:54;;;;;;;1.90;1.50;;;1.00;99.90;;;;;;5075964;28;20101;-76
2022/04/02 04:37:19;;;;;;;2.85;1.42;;;0.90;99.90;;;;;;5074814;28;20578;-76
2022/04/02 04:39:45;;;;;;;1.88;1.40;;;0.90;99.90;;;;;;5075907;28;20043;-77
2022/04/02 04:42:12;;;;;;;3.47;2.00;;;0.90;99.90;;;;;;5075715;28;20028;-77
2022/04/02 04:44:38;;;;;;;2.83;1.70;;;0.80;99.90;;;;;;5075046;28;20540;-76
2022/04/02 04:47:03;;;;;;;3.28;1.83;;;0.70;99.90;;;;;;5075562;28;20124;-76
2022/04/02 04:49:29;;;;;;;2.05;1.67;;;0.80;99.90;;;;;;5075754;28;20107;-75
2022/04/02 04:51:55;;;;;;;2.47;1.48;;;0.70;99.90;;;;;;5075483;28;20023;-77
2022/04/02 04:54:20;;;;;;;3.28;1.98;;;0.70;99.90;;;;;;5075529;28;20024;-75
2022/04/02 04:56:46;;;;;;;2.38;1.70;;;0.80;99.90;;;;;;5075672;28;20029;-74
2022/04/02 04:59:12;;;;;;;6.95;2.05;;;0.80;99.90;;;;;;5074489;28;20039;-77
2022/04/02 05:01:38;;;;;;;6.70;1.80;;;0.80;99.90;;;;;;5075252;28;20380;-77
2022/04/02 05:04:06;;;;;;;2.55;1.70;;;0.80;99.90;;;;;;5075018;28;20025;-77
2022/04/02 05:06:33;;;;;;;2.78;2.20;;;0.70;99.90;;;;;;5074884;28;20021;-75
2022/04/02 05:08:59;;;;;;;3.35;1.98;;;0.70;99.90;;;;;;5087760;28;20052;-77
2022/04/02 05:11:25;;;;;;;3.28;1.90;;;0.70;99.90;;;;;;5091333;28;20035;-77
2022/04/02 05:13:50;;;;;;;3.65;2.05;;;0.70;99.90;;;;;;5072537;28;20073;-77
2022/04/02 05:16:16;;;;;;;2.08;1.92;;;0.80;99.90;;;;;;5073678;28;20032;-75
2022/04/02 05:18:44;;;;;;;5.60;1.80;;;0.80;99.90;;;;;;5076470;28;20056;-76
2022/04/02 05:21:10;;;;;;;2.30;1.77;;;0.90;99.90;;;;;;5071863;28;20025;-76
2022/04/02 05:23:36;;;;;;;3.47;2.10;;;0.90;99.90;;;;;;5073230;28;20045;-76
2022/04/02 05:26:02;;;;;;;5.20;1.90;;;1.00;99.90;;;;;;5076365;28;20585;-76
2022/04/02 05:28:28;;;;;;;8.48;1.88;;;1.00;99.90;;;;;;5078192;28;20039;-76
2022/04/02 05:30:54;;;;;;;3.92;1.75;;;1.00;99.90;;;;;;5076984;28;20418;-76
2022/04/02 05:33:21;;;;;;;3.55;2.25;;;1.00;99.90;;;;;;5075117;28;20376;-78
2022/04/02 05:35:47;;;;;;;1.70;1.52;;;1.00;99.90;;;;;;5079500;28;20033;-77
2022/04/02 05:38:13;;;;;;;5.15;2.13;;;1.00;99.90;;;;;;5076633;28;20029;-76
2022/04/02 05:40:38;;;;;;;4.10;1.85;;;1.00;99.90;;;;;;5072600;28;20032;-76
2022/04/02 05:43:05;;;;;;;2.35;2.05;;;1.00;99.90;;;;;;5080871;28;20050;-76
2022/04/02 05:45:32;;;;;;;4.88;2.10;;;1.10;99.90;;;;;;5079041;28;20054;-75
2022/04/02 05:47:57;;;;;;;2.58;1.90;;;1.20;99.90;;;;;;5072580;28;20037;-75
2022/04/02 05:50:25;;;;;;;4.78;2.30;;;1.20;99.90;;;;;;5075463;28;20440;-77
2022/04/02 05:52:51;;;;;;;3.70;2.22;;;1.10;99.90;;;;;;5073180;28;20024;-77
2022/04/02 05:55:17;;;;;;;7.53;2.10;;;1.10;99.90;;;;;;5071650;28;20384;-78
2022/04/02 05:57:44;;;;;;;5.10;2.13;;;1.10;99.90;;;;;;5075891;28;20050;-76
2022/04/02 06:00:11;;;;;;;2.47;1.73;;;1.10;99.90;;;;;;5073887;28;20437;-76
2022/04/02 06:02:38;;;;;;;2.05;1.85;;;1.10;99.90;;;;;;5072744;28;20130;-77
2022/04/02 06:05:04;;;;;;;4.70;2.55;;;1.10;99.90;;;;;;5074619;28;20024;-77
2022/04/02 06:07:30;;;;;;;2.70;2.30;;;1.00;99.90;;;;;;5073820;28;20040;-77
2022/04/02 06:09:56;;;;;;;4.38;2.40;;;0.90;99.90;;;;;;5074147;28;20123;-77
2022/04/02 06:12:22;;;;;;;3.10;2.33;;;1.00;99.90;;;;;;5073548;28;20099;-76
2022/04/02 06:14:47;;;;;;;5.93;2.10;;;1.00;99.90;;;;;;5072637;28;20615;-76
2022/04/02 06:17:13;;;;;;;9.43;2.35;;;1.00;99.90;;;;;;5072509;28;20074;-76
2022/04/02 06:19:38;;;;;;;5.45;2.08;;;1.00;99.90;;;;;;5073662;28;20079;-77
2022/04/02 06:22:06;;;;;;;4.88;2.45;;;1.10;99.90;;;;;;5073921;28;20025;-76
2022/04/02 06:24:33;;;;;;;6.15;4.57;;;1.10;99.90;;;;;;5072981;28;20133;-75
2022/04/02 06:26:58;;;;;;;5.45;2.78;;;1.10;99.90;;;;;;5073711;28;20031;-76
2022/04/02 06:29:24;;;;;;;6.20;2.58;;;1.20;99.90;;;;;;5073614;28;20029;-75
2022/04/02 06:31:49;;;;;;;5.38;3.42;;;1.20;99.90;;;;;;5072925;28;20440;-75
2022/04/02 06:34:15;;;;;;;5.15;2.53;;;1.20;99.90;;;;;;5073103;28;20511;-74
2022/04/02 06:36:40;;;;;;;5.47;2.45;;;1.40;99.90;;;;;;5071903;28;20027;-77
2022/04/02 06:39:06;;;;;;;6.25;2.95;;;1.50;99.90;;;;;;5072188;28;20036;-77
2022/04/02 06:41:32;;;;;;;12.73;4.43;;;1.60;99.90;;;;;;5073847;28;20021;-76
2022/04/02 06:43:57;;;;;;;8.07;2.72;;;1.60;99.90;;;;;;5072653;28;20387;-76
2022/04/02 06:46:23;;;;;;;5.65;2.53;;;1.60;99.90;;;;;;5071776;28;20078;-76
2022/04/02 06:48:48;;;;;;;5.35;2.97;;;1.70;99.90;;;;;;5071871;28;20032;-76
2022/04/02 06:51:16;;;;;;;4.82;2.60;;;1.80;99.90;;;;;;5071175;28;20021;-77
2022/04/02 06:53:42;;;;;;;2.97;2.53;;;1.80;99.90;;;;;;5071989;28;21059;-75
2022/04/02 06:56:07;;;;;;;5.03;2.35;;;1.90;99.90;;;;;;5070977;28;20543;-75
2022/04/02 06:58:35;;;;;;;3.35;2.55;;;2.00;99.90;;;;;;5070871;28;20030;-76
2022/04/02 07:01:00;;;;;;;4.80;2.42;;;2.10;99.90;;;;;;5074542;28;20020;-77
2022/04/02 07:03:26;;;;;;;5.70;2.28;;;2.10;99.90;;;;;;5071621;28;20550;-76
2022/04/02 07:05:51;;;;;;;5.15;2.80;;;2.20;99.90;;;;;;5072299;28;20025;-76
2022/04/02 07:08:17;;;;;;;5.13;2.20;;;2.30;99.90;;;;;;5072087;28;20404;-76
2022/04/02 07:10:43;;;;;;;2.92;2.47;;;2.50;99.90;;;;;;5073240;28;20024;-76
2022/04/02 07:13:08;;;;;;;3.13;1.95;;;2.60;99.90;;;;;;5073297;28;20029;-76
2022/04/02 07:15:34;;;;;;;4.35;2.35;;;2.80;99.90;;;;;;5079925;28;20021;-76
2022/04/02 07:18:06;;;;;;;3.50;1.75;;;2.80;99.90;;;;;;5072616;28;20500;-76
2022/04/02 07:20:34;;;;;;;2.03;1.77;;;2.90;99.90;;;;;;5071686;28;20028;-76
2022/04/02 07:23:01;;;;;;;2.55;1.85;;;3.00;99.90;;;;;;5072324;28;20040;-75
2022/04/02 07:25:28;;;;;;;5.13;2.13;;;3.10;99.90;;;;;;5072133;28;20496;-76
2022/04/02 07:27:55;;;;;;;2.88;1.98;;;3.10;99.90;;;;;;5071669;28;20480;-76
2022/04/02 07:30:22;;;;;;;5.30;1.92;;;3.20;99.90;;;;;;5078408;28;20032;-76
2022/04/02 07:32:47;;;;;;;5.38;1.73;;;3.30;99.90;;;;;;5072983;28;20052;-76
2022/04/02 07:35:14;;;;;;;5.25;2.75;;;3.30;99.90;;;;;;5071486;28;20048;-76
2022/04/02 07:38:16;;;;;;;7.63;1.73;;;3.40;99.90;;;;;;5072693;28;20028;-75
2022/04/02 07:41:07;;;;;;;2.83;1.92;;;3.40;99.90;;;;;;5075210;28;20488;-76
2022/04/02 07:44:07;;;;;;;2.00;1.75;;;3.60;99.90;;;;;;5073578;28;20089;-76
2022/04/02 07:46:33;;;;;;;5.90;2.85;;;3.70;99.90;;;;;;5073880;28;20392;-76
2022/04/02 07:49:01;;;;;;;4.57;2.33;;;3.70;99.90;;;;;;5071515;28;20120;-77
2022/04/02 07:51:30;;;;;;;4.35;2.00;;;3.80;99.90;;;;;;5071826;28;20041;-77
2022/04/02 07:54:00;;;;;;;3.75;1.75;;;3.80;99.90;;;;;;5072149;28;20081;-77
2022/04/02 07:56:43;;;;;;;4.25;2.05;;;3.80;99.90;;;;;;5071587;28;20033;-77
2022/04/02 07:59:21;;;;;;;4.97;1.73;;;3.90;99.90;;;;;;5080640;28;20043;-78
2022/04/02 08:01:48;;;;;;;5.28;1.73;;;4.00;99.90;;;;;;5071485;28;20040;-77
2022/04/02 08:04:19;;;;;;;6.38;2.30;;;4.10;99.90;;;;;;5070696;28;20119;-75
2022/04/02 08:06:47;;;;;;;;;;;4.20;99.90;;;;;;5071614;28;20075;-74
2022/04/02 08:09:14;;;;;;;3.92;1.67;;;4.30;99.90;;;;;;5070775;28;19923;-74
2022/04/02 08:11:40;;;;;;;2.75;1.65;;;4.30;99.90;;;;;;5072336;28;20158;-75
2022/04/02 08:14:08;;;;;;;8.32;1.77;;;4.30;99.90;;;;;;5072310;28;20090;-75
2022/04/02 08:16:42;;;;;;;3.33;1.35;;;4.40;99.90;;;;;;5070740;28;20035;-74
2022/04/02 08:19:09;;;;;;;2.25;1.48;;;4.40;99.90;;;;;;5088782;28;20024;-75
2022/04/02 08:21:35;;;;;;;2.47;1.50;;;4.60;99.90;;;;;;5082721;28;20055;-75
2022/04/02 08:24:02;;;;;;;3.45;1.60;;;4.60;99.90;;;;;;5081081;28;20051;-74
2022/04/02 08:26:34;;;;;;;7.38;1.52;;;4.60;99.90;;;;;;5071543;28;20020;-74
2022/04/02 08:29:17;;;;;;;4.07;1.60;;;4.70;99.90;;;;;;5071681;28;20512;-73
2022/04/02 08:32:12;;;;;;;5.88;1.65;;;4.70;99.90;;;;;;5071753;28;20039;-75
2022/04/02 08:34:44;;;;;;;8.77;1.88;;;4.90;99.90;;;;;;5071761;28;20485;-75
2022/04/02 08:37:27;;;;;;;4.65;1.55;;;5.00;99.90;;;;;;5071266;28;20035;-75
2022/04/02 08:40:09;;;;;;;3.20;1.67;;;5.10;99.90;;;;;;5071550;28;20033;-74
2022/04/02 08:42:47;;;;;;;3.25;1.25;;;5.20;99.90;;;;;;5071144;28;20431;-74
2022/04/02 08:45:14;;;;;;;3.83;3.03;;;5.20;99.90;;;;;;5071402;28;20024;-75
2022/04/02 08:48:11;;;;;;;4.45;1.58;;;5.20;99.90;;;;;;5073630;28;20175;-75
2022/04/02 08:50:54;;;;;;;8.00;1.40;;;5.10;99.90;;;;;;5070589;28;20135;-74
2022/04/02 08:53:51;;;;;;;3.10;1.50;;;5.20;99.90;;;;;;5076922;28;20029;-74
2022/04/02 08:56:22;;;;;;;11.02;1.90;;;5.20;99.80;;;;;;5062238;28;20036;-74
2022/04/02 08:59:00;;;;;;;6.32;1.77;;;5.30;99.90;;;;;;5071038;28;20021;-74
2022/04/02 09:01:39;;;;;;;2.40;1.35;;;5.40;99.90;;;;;;5071295;28;20032;-76
2022/04/02 09:04:51;;;;;;;1.98;1.50;;;5.50;98.60;;;;;;5071747;28;20021;-74
2022/04/02 09:07:45;;;;;;;10.32;1.52;;;5.50;98.90;;;;;;5071180;28;20132;-74
2022/04/02 09:10:38;;;;;;;6.78;1.70;;;5.60;98.60;;;;;;5066978;28;20033;-73
2022/04/02 09:13:52;;;;;;;2.05;1.45;;;5.60;97.90;;;;;;5070793;28;20081;-74
2022/04/02 09:16:33;;;;;;;2.03;1.42;;;5.60;97.00;;;;;;5036335;28;20056;-76
2022/04/02 09:19:36;;;;;;;2.83;1.58;;;5.60;96.50;;;;;;5074520;28;20028;-73
2022/04/02 09:22:18;;;;;;;1.52;1.27;;;5.70;96.70;;;;;;5074978;28;20576;-74
2022/04/02 09:25:33;;;;;;;3.20;1.33;;;5.80;96.10;;;;;;5075180;28;20067;-74
2022/04/02 09:28:27;;;;;;;3.67;1.65;;;5.90;96.60;;;;;;5075233;28;20044;-74
2022/04/02 09:31:25;;;;;;;6.05;1.98;;;6.00;95.60;;;;;;5074590;28;20048;-74
2022/04/02 09:34:03;;;;;;;2.72;1.85;;;6.20;95.50;;;;;;5074232;28;20024;-73
2022/04/02 09:36:41;;;;;;;6.18;2.67;;;6.40;94.90;;;;;;5073565;28;20020;-73
2022/04/02 09:39:26;;;;;;;1.80;1.42;;;6.60;94.50;;;;;;5091751;28;20044;-73
2022/04/02 09:41:57;;;;;;;1.63;1.25;;;6.70;94.60;;;;;;5092712;28;20462;-73
2022/04/02 09:44:52;;;;;;;2.85;1.65;;;6.70;94.30;;;;;;5093556;28;20110;-74
2022/04/02 09:47:36;;;;;;;1.77;1.48;;;6.80;94.50;;;;;;5073019;28;20083;-73
2022/04/02 09:50:12;;;;;;;1.88;1.50;;;6.90;93.50;;;;;;5073141;28;20129;-73
2022/04/02 09:53:21;;;;;;;2.60;1.83;;;6.90;93.20;;;;;;5074258;28;20115;-74
2022/04/02 09:55:50;;;;;;;2.40;1.30;;;7.00;91.40;;;;;;5051943;28;20059;-74
2022/04/02 09:58:41;;;;;;;1.25;1.15;;;6.90;91.10;;;;;;5074038;28;20017;-73
2022/04/02 10:01:09;;;;;;;3.88;1.77;;;6.90;91.60;;;;;;5073040;28;20107;-74
2022/04/02 10:03:58;;;;;;;5.25;1.58;;;6.90;92.60;;;;;;5074053;28;20043;-74
2022/04/02 10:06:31;;;;;;;1.95;1.63;;;7.00;91.30;;;;;;5073990;28;20073;-73
2022/04/02 10:09:13;;;;;;;3.35;1.45;;;7.10;90.90;;;;;;5072878;28;20056;-73
2022/04/02 10:11:57;;;;;;;2.55;1.65;;;7.00;90.30;;;;;;5092465;28;20046;-74
2022/04/02 10:14:28;;;;;;;3.63;1.50;;;7.10;90.80;;;;;;5095405;28;20024;-74
2022/04/02 10:16:56;;;;;;;8.50;1.40;;;7.00;90.30;;;;;;5085906;28;20020;-74
2022/04/02 10:19:31;;;;;;;2.92;1.20;;;7.00;90.10;;;;;;5072425;28;20024;-75
2022/04/02 10:22:08;;;;;;;1.83;1.10;;;6.90;86.70;;;;;;5071826;28;20036;-74
2022/04/02 10:24:55;;;;;;;2.28;1.33;;;7.00;87.50;;;;;;5089229;28;20052;-73
2022/04/02 10:27:34;;;;;;;2.33;1.13;;;7.00;87.10;;;;;;5070960;28;20489;-74
2022/04/02 10:30:13;;;;;;;1.98;1.27;;;6.90;88.10;;;;;;5072589;28;20032;-74
2022/04/02 10:33:26;;;;;;;3.85;1.30;;;7.20;87.50;;;;;;5092818;28;20681;-73
2022/04/02 10:35:50;;;;;;;1.30;0.95;;;7.40;88.90;;;;;;5092477;28;20114;-74
2022/04/02 10:38:36;;;;;;;5.10;1.10;;;7.30;85.00;;;;;;5077936;28;20456;-74
2022/04/02 10:41:12;;;;;;;1.50;1.23;;;7.20;84.80;;;;;;5090830;28;20472;-73
2022/04/02 10:44:02;;;;;;;1.85;0.98;;;7.20;85.80;;;;;;5092037;28;20055;-74
2022/04/02 10:46:32;;;;;;;3.30;1.40;;;7.30;85.20;;;;;;5092677;28;20016;-74
2022/04/02 10:49:00;;;;;;;1.80;1.25;;;7.30;87.50;;;;;;5091517;28;20097;-73
2022/04/02 10:51:28;;;;;;;1.40;1.17;;;7.20;86.40;;;;;;5073474;28;20031;-73
2022/04/02 10:54:01;;;;;;;2.78;1.50;;;7.20;85.90;;;;;;5072698;28;20134;-74
2022/04/02 10:56:33;;;;;;;2.92;1.20;;;7.10;88.00;;;;;;5072737;28;20074;-74
2022/04/02 10:59:00;;;;;;;4.25;1.70;;;7.00;87.80;;;;;;5072217;28;20032;-75
2022/04/02 11:01:26;;;;;;;1.88;1.10;;;6.90;87.50;;;;;;5072883;28;20033;-74
2022/04/02 11:03:56;;;;;;;1.60;1.15;;;6.90;88.40;;;;;;5072930;28;20044;-74
2022/04/02 11:06:43;;;;;;;9.63;1.20;;;6.90;87.70;;;;;;5072478;28;20061;-75
2022/04/02 11:09:39;;;;;;;2.13;1.05;;;7.00;85.30;;;;;;5072475;28;20059;-74
2022/04/02 11:12:09;;;;;;;2.70;1.23;;;7.10;83.30;;;;;;5072323;28;20039;-73
2022/04/02 11:14:46;;;;;;;1.33;1.08;;;7.10;85.10;;;;;;5072945;28;20021;-74
2022/04/02 11:17:29;;;;;;;4.00;1.13;;;7.20;88.10;;;;;;5072835;28;20035;-73
2022/04/02 11:20:25;;;;;;;2.50;1.35;;;7.00;88.70;;;;;;5070944;28;20068;-73
2022/04/02 11:22:57;;;;;;;4.72;1.23;;;6.80;87.30;;;;;;5087965;28;20032;-74
2022/04/02 11:25:28;;;;;;;2.80;1.30;;;6.60;88.80;;;;;;5091452;28;20028;-74
2022/04/02 11:27:58;;;;;;;1.48;1.08;;;6.60;89.50;;;;;;5087992;28;20380;-73
2022/04/02 11:30:30;;;;;;;1.55;0.98;;;6.70;89.20;;;;;;5074330;28;20023;-74
2022/04/02 11:33:08;;;;;;;1.88;1.10;;;6.80;90.00;;;;;;5089677;28;20047;-75
2022/04/02 11:35:39;;;;;;;1.55;1.38;;;6.70;91.10;;;;;;5092046;28;20026;-74
2022/04/02 11:38:07;;;;;;;;;;;6.60;91.50;;;;;;5075825;28;20379;-74
2022/04/02 11:40:36;;;;;;;1.67;1.02;;;6.50;91.20;;;;;;5072553;28;19912;-73
2022/04/02 11:43:02;;;;;;;4.50;1.10;;;6.40;91.40;;;;;;5071836;28;20013;-73
2022/04/02 11:45:31;;;;;;;5.40;0.90;;;6.30;92.00;;;;;;5082880;28;20034;-73
2022/04/02 11:48:18;;;;;;;1.15;0.75;;;6.30;93.10;;;;;;5090763;28;20034;-73
2022/04/02 11:50:45;;;;;;;5.32;1.70;;;6.40;92.90;;;;;;5092617;28;20028;-74
2022/04/02 11:53:12;;;;;;;2.35;1.50;;;6.50;93.20;;;;;;5073469;28;20028;-73
2022/04/02 11:55:40;;;;;;;1.98;1.27;;;6.50;91.90;;;;;;5073997;28;20480;-74
2022/04/02 11:58:06;;;;;;;1.38;0.98;;;6.40;91.90;;;;;;5071151;28;20020;-73
2022/04/02 12:00:34;;;;;;;2.45;1.48;;;6.40;92.50;;;;;;5070255;28;20024;-73
2022/04/02 12:03:00;;;;;;;3.78;1.58;;;6.50;93.30;;;;;;5071402;28;20040;-74
2022/04/02 12:05:37;;;;;;;2.63;1.48;;;6.30;92.40;;;;;;5070857;28;20028;-74
2022/04/02 12:08:03;;;;;;;1.73;1.52;;;6.40;92.60;;;;;;5089263;28;20056;-73
2022/04/02 12:10:31;;;;;;;2.90;1.70;;;6.60;91.90;;;;;;5091177;28;20063;-73
2022/04/02 12:13:02;;;;;;;7.93;1.80;;;6.70;91.90;;;;;;5091665;28;20570;-74
2022/04/02 12:15:28;;;;;;;4.43;1.40;;;7.00;91.40;;;;;;5090767;28;20039;-74
2022/04/02 12:18:01;;;;;;;2.47;1.48;;;7.20;90.10;;;;;;5091951;28;20278;-75
2022/04/02 12:20:29;;;;;;;4.97;1.65;;;7.30;89.10;;;;;;5091826;28;20040;-73
2022/04/02 12:23:16;;;;;;;1.67;0.93;;;7.30;84.70;;;;;;5091702;28;20036;-73
2022/04/02 12:25:53;;;;;;;2.00;1.08;;;7.10;84.80;;;;;;5092047;28;20027;-74
2022/04/02 12:28:19;;;;;;;1.27;0.93;;;7.00;84.30;;;;;;5091843;28;20068;-73
2022/04/02 12:30:48;;;;;;;2.10;0.82;;;7.00;83.40;;;;;;5091915;28;20031;-73
2022/04/02 12:33:22;;;;;;;1.00;0.90;;;7.00;84.80;;;;;;5091846;28;20105;-73
2022/04/02 12:35:59;;;;;;;1.10;1.00;;;7.00;82.40;;;;;;5091039;28;20483;-73
2022/04/02 12:38:30;;;;;;;1.60;0.90;;;6.90;84.00;;;;;;5091960;28;20073;-75
2022/04/02 12:40:58;;;;;;;1.75;0.90;;;6.80;82.80;;;;;;5092051;28;20252;-73
2022/04/02 12:43:26;;;;;;;1.55;0.93;;;6.80;83.60;;;;;;5091039;28;20046;-74
2022/04/02 12:45:51;;;;;;;1.70;1.27;;;7.00;84.70;;;;;;5091979;28;20533;-74
2022/04/02 12:48:20;;;;;;;1.48;0.88;;;7.00;84.10;;;;;;5091519;28;20036;-73
2022/04/02 12:50:56;;;;;;;1.58;1.27;;;7.00;84.20;;;;;;5094560;28;20032;-73
2022/04/02 12:53:36;;;;;;;1.30;1.10;;;7.10;83.40;;;;;;5095999;28;20028;-73
2022/04/02 12:56:07;;;;;;;1.65;0.82;;;7.00;81.90;;;;;;5095973;28;20450;-74
2022/04/02 12:58:38;;;;;;;2.03;1.73;;;7.00;82.10;;;;;;5095063;28;20028;-73
2022/04/02 13:01:09;;;;;;;1.17;0.90;;;7.10;83.20;;;;;;5095737;28;20024;-73
2022/04/02 13:03:43;;;;;;;1.13;1.02;;;7.20;83.00;;;;;;5094969;28;20024;-75
2022/04/02 13:06:19;;;;;;;8.40;1.27;;;7.50;84.40;;;;;;5095416;28;20076;-74
2022/04/02 13:08:56;;;;;;;3.08;0.98;;;7.50;84.10;;;;;;5095375;28;20048;-73
2022/04/02 13:11:35;;;;;;;2.15;1.35;;;7.30;84.90;;;;;;5088635;28;20456;-74
2022/04/02 13:14:15;;;;;;;2.53;1.42;;;7.30;88.70;;;;;;5096649;28;20077;-74
2022/04/02 13:16:41;;;;;;;2.78;1.50;;;7.30;89.00;;;;;;5096773;28;20108;-73
2022/04/02 13:22:02;;;;;;;2.63;1.83;;;7.30;89.80;;;;;;5095633;28;20518;-73
2022/04/02 13:24:53;;;;;;;3.47;1.38;;;7.40;87.70;;;;;;5095076;28;20032;-74